createdAt,value
2019-03-12T00:03:18.579Z,77.50
2019-03-12T00:07:23.467Z,78.40
2019-03-12T00:11:28.424Z,79.30
2019-03-12T00:15:33.335Z,80.90
2019-03-12T00:19:38.340Z,81.20
2019-03-12T00:23:43.207Z,81.00
2019-03-12T00:27:51.259Z,81.90
2019-03-12T00:31:56.158Z,82.30
2019-03-12T00:36:01.041Z,82.50
2019-03-12T00:40:06.585Z,83.20
2019-03-12T00:44:11.496Z,84.00
2019-03-12T00:48:21.810Z,84.80
2019-03-12T00:52:26.665Z,84.70
2019-03-12T00:56:31.610Z,85.30
2019-03-12T01:00:36.577Z,86.60
2019-03-12T01:04:41.439Z,87.10
2019-03-12T01:08:57.694Z,86.60
2019-03-12T01:13:07.929Z,87.40
2019-03-12T01:17:12.819Z,87.60
2019-03-12T01:21:17.690Z,89.80
2019-03-12T01:25:22.618Z,90.20
2019-03-12T01:29:27.641Z,90.10
2019-03-12T01:33:32.882Z,90.20
2019-03-12T01:37:37.786Z,90.60
2019-03-12T01:41:43.803Z,90.80
2019-03-12T01:45:48.704Z,91.10
2019-03-12T01:49:54.721Z,91.50
2019-03-12T01:53:59.606Z,91.50
2019-03-12T01:58:04.508Z,91.40
2019-03-12T02:02:09.583Z,92.10
2019-03-12T02:06:14.489Z,92.10
2019-03-12T02:10:23.810Z,92.30
2019-03-12T02:14:30.150Z,92.60
2019-03-12T02:18:41.325Z,92.80
2019-03-12T02:22:46.258Z,92.70
2019-03-12T02:26:52.339Z,92.90
2019-03-12T02:31:00.627Z,94.00
2019-03-12T02:35:07.316Z,93.80
2019-03-12T02:39:12.205Z,94.20
2019-03-12T02:43:17.472Z,94.40
2019-03-12T02:47:22.370Z,94.10
2019-03-12T02:51:27.434Z,94.20
2019-03-12T02:55:32.560Z,94.30
2019-03-12T02:59:37.843Z,94.50
2019-03-12T03:03:49.027Z,94.50
2019-03-12T03:08:02.818Z,95.20
2019-03-12T03:12:07.826Z,94.60
2019-03-12T03:16:13.896Z,94.80
2019-03-12T03:20:18.784Z,94.50
2019-03-12T03:24:23.661Z,94.80
2019-03-12T03:28:28.635Z,94.90
2019-03-12T03:32:38.139Z,94.80
2019-03-12T03:36:44.210Z,95.40
2019-03-12T03:40:51.326Z,95.40
2019-03-12T03:44:56.231Z,95.50
2019-03-12T03:49:08.664Z,95.40
2019-03-12T03:53:13.550Z,95.40
2019-03-12T03:57:18.440Z,95.40
2019-03-12T04:01:23.771Z,95.40
2019-03-12T04:05:28.973Z,95.60
2019-03-12T04:09:34.256Z,95.80
2019-03-12T04:13:39.537Z,95.40
2019-03-12T04:17:52.679Z,95.40
2019-03-12T04:21:57.580Z,95.40
2019-03-12T04:26:02.607Z,95.40
2019-03-12T04:30:07.879Z,95.30
2019-03-12T04:34:28.399Z,96.20
2019-03-12T04:38:33.426Z,95.70
2019-03-12T04:42:38.335Z,95.40
2019-03-12T04:46:45.427Z,95.30
2019-03-12T04:50:50.272Z,95.60
2019-03-12T04:55:01.150Z,95.90
2019-03-12T04:59:06.151Z,95.20
2019-03-12T05:03:13.266Z,95.20
2019-03-12T05:07:18.157Z,96.00
2019-03-12T05:11:24.223Z,96.00
2019-03-12T05:15:29.102Z,96.00
2019-03-12T05:19:34.267Z,95.20
2019-03-12T05:23:39.157Z,95.70
2019-03-12T05:27:45.562Z,95.60
2019-03-12T05:31:50.523Z,95.20
2019-03-12T05:35:55.433Z,95.90
2019-03-12T05:40:00.641Z,95.80
2019-03-12T05:44:05.994Z,95.40
2019-03-12T05:48:11.214Z,95.30
2019-03-12T05:52:16.988Z,95.40
2019-03-12T05:56:22.396Z,95.20
2019-03-12T06:00:27.872Z,95.30
2019-03-12T06:04:33.201Z,94.90
2019-03-12T06:08:39.507Z,94.20
2019-03-12T06:12:44.763Z,93.70
2019-03-12T06:16:50.033Z,92.80
2019-03-12T06:20:55.208Z,92.40
2019-03-12T06:25:04.885Z,92.80
2019-03-12T06:29:10.078Z,93.10
2019-03-12T06:33:24.164Z,92.90
2019-03-12T06:37:45.349Z,92.70
2019-03-12T06:42:09.736Z,92.50
2019-03-12T06:46:35.987Z,92.70
2019-03-12T06:50:58.490Z,91.10
2019-03-12T06:55:15.019Z,90.60
2019-03-12T06:59:41.325Z,90.10
2019-03-12T07:04:01.803Z,89.40
2019-03-12T07:08:28.774Z,88.90
2019-03-12T07:13:01.707Z,88.10
2019-03-12T07:17:33.349Z,86.20
2019-03-12T07:21:58.138Z,83.60
2019-03-12T07:26:14.127Z,82.00
2019-03-12T07:30:41.382Z,76.90
2019-03-12T07:35:11.707Z,74.80
2019-03-12T07:39:34.344Z,73.80
2019-03-12T07:43:51.842Z,67.00
2019-03-12T07:48:16.275Z,65.20
2019-03-12T07:52:40.737Z,59.00
2019-03-12T07:57:02.721Z,56.00
2019-03-12T08:01:14.340Z,54.40
2019-03-12T08:05:38.573Z,50.00
2019-03-12T08:10:11.284Z,52.40
2019-03-12T08:14:43.134Z,47.60
2019-03-12T08:19:03.893Z,48.70
2019-03-12T08:23:25.201Z,47.70
2019-03-12T08:27:48.565Z,45.50
2019-03-12T08:32:05.269Z,44.80
2019-03-12T08:36:19.749Z,45.90
2019-03-12T08:40:52.064Z,42.90
2019-03-12T08:45:21.361Z,41.00
2019-03-12T08:49:54.670Z,36.50
2019-03-12T08:54:28.457Z,35.40
2019-03-12T08:58:57.332Z,33.60
2019-03-12T09:03:24.573Z,30.80
2019-03-12T09:07:42.917Z,29.40
2019-03-12T09:12:06.891Z,28.10
2019-03-12T09:16:17.940Z,26.90
2019-03-12T09:20:44.875Z,26.30
2019-03-12T09:25:18.968Z,26.70
2019-03-12T09:29:52.032Z,28.70
2019-03-12T09:34:17.263Z,28.00
2019-03-12T09:39:01.586Z,27.60
2019-03-12T09:43:25.450Z,28.20
2019-03-12T09:47:49.599Z,27.10
2019-03-12T09:52:02.648Z,27.20
2019-03-12T09:56:14.724Z,25.90
2019-03-12T10:00:50.811Z,26.50
2019-03-12T10:05:14.834Z,24.80
2019-03-12T10:09:40.026Z,27.30
2019-03-12T10:14:23.763Z,26.50
2019-03-12T10:18:53.122Z,28.60
2019-03-12T10:23:06.965Z,29.20
2019-03-12T10:27:41.195Z,25.40
2019-03-12T10:32:00.965Z,23.80
2019-03-12T10:36:21.933Z,22.90
2019-03-12T10:40:44.520Z,23.40
2019-03-12T10:45:09.830Z,21.50
2019-03-12T10:49:15.142Z,23.10
2019-03-12T10:53:20.347Z,23.00
2019-03-12T10:57:25.597Z,20.60
2019-03-12T11:01:30.759Z,20.70
2019-03-12T11:05:45.371Z,21.00
2019-03-12T11:09:42.852Z,20.50
2019-03-12T11:13:48.205Z,19.70
2019-03-12T11:17:53.136Z,19.10
2019-03-12T11:21:58.075Z,19.80
2019-03-12T11:26:03.315Z,19.70
2019-03-12T11:30:10.754Z,20.00
2019-03-12T11:34:15.703Z,17.30
2019-03-12T11:38:20.594Z,18.60
2019-03-12T11:42:25.711Z,19.00
2019-03-12T11:46:41.854Z,18.40
2019-03-12T11:50:37.247Z,16.00
2019-03-12T11:54:42.778Z,16.80
2019-03-12T11:58:48.005Z,17.10
2019-03-12T12:02:59.745Z,16.40
2019-03-12T12:07:00.202Z,15.50
2019-03-12T12:11:05.657Z,15.40
2019-03-12T12:15:12.049Z,15.30
2019-03-12T12:19:17.395Z,15.20
2019-03-12T12:23:24.158Z,15.40
2019-03-12T12:27:29.050Z,15.20
2019-03-12T12:31:33.980Z,14.10
2019-03-12T12:35:39.261Z,15.20
2019-03-12T12:39:44.198Z,14.30
2019-03-12T12:43:49.285Z,14.70
2019-03-12T12:47:54.186Z,12.60
2019-03-12T12:51:59.385Z,13.10
2019-03-12T12:56:04.241Z,13.30
2019-03-12T13:00:15.366Z,12.40
2019-03-12T13:04:20.253Z,12.30
2019-03-12T13:08:25.311Z,12.10
2019-03-12T13:12:30.297Z,11.60
2019-03-12T13:16:35.633Z,11.70
2019-03-12T13:20:40.667Z,10.80
2019-03-12T13:24:45.654Z,13.00
2019-03-12T13:28:50.923Z,13.80
2019-03-12T13:32:55.860Z,13.30
2019-03-12T13:37:02.905Z,13.70
2019-03-12T13:41:07.967Z,15.20
2019-03-12T13:45:14.878Z,14.20
2019-03-12T13:49:20.042Z,13.30
2019-03-12T13:53:24.965Z,12.80
2019-03-12T13:57:29.905Z,12.80
2019-03-12T14:01:35.988Z,12.90
2019-03-12T14:05:42.742Z,12.20
2019-03-12T14:09:51.601Z,11.70
2019-03-12T14:13:58.114Z,12.30
2019-03-12T14:18:05.090Z,10.90
2019-03-12T14:22:11.786Z,10.70
2019-03-12T14:26:19.679Z,10.80
2019-03-12T14:30:25.984Z,10.00
2019-03-12T14:34:31.974Z,9.20
2019-03-12T14:38:40.555Z,10.10
2019-03-12T14:42:47.970Z,9.80
2019-03-12T14:46:54.224Z,12.50
2019-03-12T14:51:05.882Z,14.50
2019-03-12T14:55:10.961Z,18.30
2019-03-12T14:59:15.961Z,19.80
2019-03-12T15:03:20.995Z,20.90
2019-03-12T15:07:25.916Z,22.00
2019-03-12T15:11:31.195Z,24.20
2019-03-12T15:15:36.134Z,25.10
2019-03-12T15:19:41.323Z,25.50
2019-03-12T15:23:46.182Z,26.40
2019-03-12T15:27:51.411Z,26.30
2019-03-12T15:32:04.087Z,26.00
2019-03-12T15:36:03.051Z,27.90
2019-03-12T15:40:08.331Z,29.00
2019-03-12T15:44:13.484Z,28.80
2019-03-12T15:48:21.403Z,27.90
2019-03-12T15:52:25.099Z,27.70
2019-03-12T15:56:30.008Z,28.80
2019-03-12T16:00:35.070Z,28.60
2019-03-12T16:04:39.925Z,29.00
2019-03-12T16:08:44.959Z,30.50
2019-03-12T16:12:50.401Z,31.00
2019-03-12T16:16:55.939Z,32.60
2019-03-12T16:21:01.041Z,33.20
2019-03-12T16:25:06.225Z,34.90
2019-03-12T16:29:11.602Z,37.70
2019-03-12T16:33:17.014Z,38.20
2019-03-12T16:37:26.527Z,38.00
2019-03-12T16:41:31.790Z,39.10
2019-03-12T16:45:37.212Z,40.90
2019-03-12T16:49:42.529Z,41.70
2019-03-12T16:53:48.155Z,42.00
2019-03-12T16:57:53.464Z,42.80
2019-03-12T17:01:58.754Z,42.40
2019-03-12T17:06:04.037Z,45.00
2019-03-12T17:10:10.385Z,46.40
2019-03-12T17:14:15.615Z,47.20
2019-03-12T17:18:20.931Z,47.60
2019-03-12T17:22:26.288Z,48.20
2019-03-12T17:26:31.639Z,48.80
2019-03-12T17:30:36.915Z,49.70
2019-03-12T17:34:42.301Z,50.50
2019-03-12T17:38:47.662Z,52.00
2019-03-12T17:42:53.358Z,51.00
2019-03-12T17:46:58.673Z,51.70
2019-03-12T17:51:03.954Z,53.00
2019-03-12T17:55:14.902Z,52.00
2019-03-12T17:59:19.958Z,53.40
2019-03-12T18:03:25.212Z,53.90
2019-03-12T18:07:30.218Z,55.00
2019-03-12T18:11:35.191Z,54.80
2019-03-12T18:15:40.346Z,55.60
2019-03-12T18:19:45.371Z,55.40
2019-03-12T18:23:52.030Z,55.30
2019-03-12T18:27:57.559Z,55.70
2019-03-12T18:32:02.633Z,55.60
2019-03-12T18:36:08.644Z,55.60
2019-03-12T18:40:16.340Z,55.60
2019-03-12T18:44:21.451Z,55.50
2019-03-12T18:48:26.472Z,55.50
2019-03-12T18:52:31.612Z,56.50
2019-03-12T18:56:38.420Z,56.90
2019-03-12T19:00:44.084Z,57.10
2019-03-12T19:04:49.251Z,57.50
2019-03-12T19:08:54.528Z,58.00
2019-03-12T19:12:59.794Z,58.60
2019-03-12T19:17:05.266Z,58.40
2019-03-12T19:21:12.650Z,58.80
2019-03-12T19:25:21.599Z,59.30
2019-03-12T19:29:26.584Z,59.20
2019-03-12T19:33:31.783Z,59.60
2019-03-12T19:37:36.830Z,60.00
2019-03-12T19:41:41.875Z,60.90
2019-03-12T19:45:46.927Z,60.30
2019-03-12T19:49:52.043Z,61.60
2019-03-12T19:53:56.968Z,62.30
2019-03-12T19:58:02.093Z,62.80
2019-03-12T20:02:16.195Z,64.20
2019-03-12T20:06:14.766Z,63.30
2019-03-12T20:10:54.984Z,64.50
2019-03-12T20:15:35.376Z,64.60
2019-03-12T20:20:42.585Z,64.50
2019-03-12T20:25:24.213Z,64.60
2019-03-12T20:30:22.316Z,64.50
2019-03-12T20:35:23.855Z,64.50
2019-03-12T20:40:04.545Z,64.50
2019-03-12T20:44:52.181Z,64.50
2019-03-12T20:49:49.385Z,64.50
2019-03-12T20:54:26.804Z,64.50
2019-03-12T20:59:27.528Z,64.50
2019-03-12T21:04:05.780Z,64.50
2019-03-12T21:08:58.040Z,64.30
2019-03-12T21:13:39.016Z,65.60
2019-03-12T21:18:21.510Z,65.60
2019-03-12T21:22:46.049Z,66.20
2019-03-12T21:27:17.714Z,66.90
2019-03-12T21:31:24.608Z,67.20
2019-03-12T21:35:29.674Z,67.70
2019-03-12T21:39:34.795Z,67.80
2019-03-12T21:43:40.018Z,68.10
2019-03-12T21:47:45.099Z,68.00
2019-03-12T21:51:49.981Z,68.70
2019-03-12T21:55:54.989Z,68.30
2019-03-12T22:00:00.389Z,68.70
2019-03-12T22:04:05.538Z,69.10
2019-03-12T22:08:10.582Z,69.40
2019-03-12T22:12:15.649Z,69.20
2019-03-12T22:16:20.791Z,70.20
2019-03-12T22:20:25.686Z,70.50
2019-03-12T22:24:30.918Z,70.90
2019-03-12T22:28:35.937Z,71.00
2019-03-12T22:32:41.332Z,71.10
2019-03-12T22:36:46.560Z,71.40
2019-03-12T22:40:51.668Z,72.00
2019-03-12T22:44:56.632Z,72.00
2019-03-12T22:49:01.564Z,72.10
2019-03-12T22:53:06.512Z,73.50
2019-03-12T22:57:11.441Z,73.10
2019-03-12T23:01:16.550Z,73.10
2019-03-12T23:05:21.817Z,72.60
2019-03-12T23:09:26.834Z,72.50
2019-03-12T23:13:31.824Z,73.20
2019-03-12T23:17:36.883Z,72.40
2019-03-12T23:21:41.897Z,73.30
2019-03-12T23:25:46.893Z,73.70
2019-03-12T23:29:51.965Z,73.80
2019-03-12T23:33:57.132Z,73.90
2019-03-12T23:38:02.157Z,73.90
2019-03-12T23:42:07.572Z,73.70
2019-03-12T23:46:12.636Z,74.10
2019-03-12T23:50:18.363Z,73.20
2019-03-12T23:54:23.826Z,73.20
2019-03-12T23:58:32.050Z,72.80
